Time;durP1;ratioP1;P1;durP2;ratioP2;P2;SDS_P1;SDS_P2;PMS_P1;PMS_P2;Temp;Humidity;BMP_temperature;BMP_pressure;BME280_temperature;BME280_humidity;BME280_pressure;Samples;Min_cycle;Max_cycle;Signal;HPM_P1;HPM_P2
2022/01/06 00:01:53;;;;;;;0.90;0.90;;;-4.80;99.90;;;;;;5072970;28;20283;-72
2022/01/06 00:04:19;;;;;;;1.00;1.00;;;-4.70;99.90;;;;;;5060664;28;20211;-74
2022/01/06 00:06:45;;;;;;;0.90;0.90;;;-4.60;99.90;;;;;;5061875;28;20200;-72
2022/01/06 00:09:15;;;;;;;0.90;0.90;;;-4.60;99.90;;;;;;5055760;28;20254;-74
2022/01/06 00:11:41;;;;;;;0.90;0.90;;;-4.60;99.90;;;;;;5072806;28;20201;-74
2022/01/06 00:14:24;;;;;;;1.40;1.30;;;-4.60;99.90;;;;;;5072743;28;20652;-74
2022/01/06 00:24:47;;;;;;;0.83;0.83;;;-4.80;99.90;;;;;;5071024;28;20207;-74
2022/01/06 00:27:13;;;;;;;0.80;0.80;;;-4.80;99.90;;;;;;5072632;28;20209;-74
2022/01/06 00:29:39;;;;;;;0.80;0.80;;;-4.90;99.90;;;;;;5071316;28;20228;-73
2022/01/06 00:32:05;;;;;;;0.80;0.80;;;-4.90;99.90;;;;;;5054715;28;20209;-74
2022/01/06 00:34:30;;;;;;;0.80;0.80;;;-4.80;99.90;;;;;;5072418;28;20211;-74
2022/01/06 00:36:56;;;;;;;0.90;0.90;;;-4.80;99.90;;;;;;5071220;28;20631;-73
2022/01/06 00:39:27;;;;;;;0.90;0.90;;;-4.80;99.90;;;;;;5072044;28;20225;-72
2022/01/06 00:41:55;;;;;;;0.83;0.83;;;-4.80;99.90;;;;;;5072274;28;20193;-73
2022/01/06 00:44:23;;;;;;;0.80;0.80;;;-4.80;99.90;;;;;;5072010;28;20204;-73
2022/01/06 00:46:49;;;;;;;0.80;0.80;;;-4.80;99.90;;;;;;5053174;28;20204;-72
2022/01/06 00:49:17;;;;;;;0.90;0.90;;;-4.80;99.90;;;;;;5054567;28;20215;-73
2022/01/06 00:51:43;;;;;;;0.80;0.80;;;-4.90;99.90;;;;;;5072124;28;20235;-74
2022/01/06 00:54:09;;;;;;;0.80;0.80;;;-4.90;99.90;;;;;;5071981;28;20208;-75
2022/01/06 00:56:35;;;;;;;0.80;0.80;;;-5.00;99.90;;;;;;5070455;28;20338;-73
2022/01/06 00:59:01;;;;;;;0.80;0.80;;;-5.00;99.90;;;;;;5069885;28;20287;-72
2022/01/06 01:01:26;;;;;;;0.90;0.90;;;-5.10;99.90;;;;;;5070563;28;20211;-73
2022/01/06 01:03:52;;;;;;;0.80;0.80;;;-5.10;99.90;;;;;;5053248;28;20652;-73
2022/01/06 01:06:18;;;;;;;0.93;0.93;;;-5.20;99.90;;;;;;5070682;28;20212;-73
2022/01/06 01:08:43;;;;;;;0.90;0.90;;;-5.30;99.90;;;;;;5070791;28;20224;-74
2022/01/06 01:11:09;;;;;;;0.80;0.80;;;-5.30;99.90;;;;;;5070557;28;20278;-74
2022/01/06 01:13:43;;;;;;;0.80;0.80;;;-5.30;99.90;;;;;;5071531;28;20227;-74
2022/01/06 01:16:21;;;;;;;0.80;0.80;;;-5.30;99.90;;;;;;5054756;28;20739;-74
2022/01/06 01:18:49;;;;;;;0.97;0.97;;;-5.30;99.90;;;;;;5071673;28;20664;-74
2022/01/06 01:21:15;;;;;;;0.87;0.87;;;-5.40;99.90;;;;;;5072096;28;20215;-74
2022/01/06 01:23:41;;;;;;;0.80;0.80;;;-5.40;99.90;;;;;;5070621;28;20283;-74
2022/01/06 01:26:07;;;;;;;1.23;1.13;;;-5.30;99.90;;;;;;5071712;28;20243;-74
2022/01/06 01:28:42;;;;;;;0.80;0.80;;;-5.40;99.90;;;;;;5070157;28;20266;-74
2022/01/06 01:31:25;;;;;;;0.80;0.80;;;-5.50;99.90;;;;;;5056752;28;20290;-73
2022/01/06 01:33:56;;;;;;;0.70;0.70;;;-5.50;99.90;;;;;;5070430;28;20204;-74
2022/01/06 01:36:22;;;;;;;0.90;0.90;;;-5.50;99.90;;;;;;5053051;28;20224;-72
2022/01/06 01:38:48;;;;;;;0.90;0.90;;;-5.50;99.90;;;;;;5070482;28;20208;-74
2022/01/06 01:41:14;;;;;;;0.90;0.90;;;-5.50;99.90;;;;;;5054409;28;20235;-74
2022/01/06 01:43:41;;;;;;;0.80;0.80;;;-5.60;99.90;;;;;;5052306;28;20261;-73
2022/01/06 01:46:13;;;;;;;0.87;0.87;;;-5.60;99.90;;;;;;5055098;28;20266;-73
2022/01/06 01:48:44;;;;;;;0.87;0.87;;;-5.60;99.90;;;;;;5071197;28;20208;-74
2022/01/06 01:51:10;;;;;;;0.80;0.80;;;-5.70;99.90;;;;;;5071417;28;20218;-72
2022/01/06 01:53:37;;;;;;;0.90;0.90;;;-5.70;99.90;;;;;;5054081;28;20578;-72
2022/01/06 01:56:10;;;;;;;0.80;0.80;;;-5.70;99.90;;;;;;5070218;28;20246;-72
2022/01/06 01:58:37;;;;;;;0.80;0.80;;;-5.80;99.90;;;;;;5040595;28;20212;-72
2022/01/06 02:01:04;;;;;;;0.80;0.80;;;-5.80;99.90;;;;;;5070548;28;20204;-73
2022/01/06 02:03:29;;;;;;;0.70;0.70;;;-5.80;99.90;;;;;;5052534;28;20208;-72
2022/01/06 02:05:55;;;;;;;0.90;0.90;;;-5.90;99.90;;;;;;5071071;28;20201;-71
2022/01/06 02:08:21;;;;;;;0.80;0.80;;;-6.10;99.90;;;;;;5071062;28;20212;-72
2022/01/06 02:10:47;;;;;;;0.90;0.90;;;-6.20;99.90;;;;;;5071125;28;20240;-73
2022/01/06 02:13:13;;;;;;;0.90;0.90;;;-6.30;99.90;;;;;;5071385;28;20189;-72
2022/01/06 02:15:39;;;;;;;0.80;0.80;;;-6.30;99.90;;;;;;5070264;28;20211;-73
2022/01/06 02:18:05;;;;;;;0.90;0.90;;;-6.30;99.90;;;;;;5071196;28;20582;-71
2022/01/06 02:20:30;;;;;;;0.90;0.90;;;-6.30;99.90;;;;;;5054204;28;20277;-72
2022/01/06 02:22:56;;;;;;;1.00;1.00;;;-6.30;99.90;;;;;;5069954;28;20675;-72
2022/01/06 02:25:32;;;;;;;0.90;0.90;;;-6.30;99.90;;;;;;5052789;28;20205;-72
2022/01/06 02:28:04;;;;;;;0.90;0.90;;;-6.20;99.90;;;;;;5070028;28;20208;-72
2022/01/06 02:30:32;;;;;;;1.00;1.00;;;-6.20;99.90;;;;;;5053824;28;20212;-72
2022/01/06 02:33:01;;;;;;;0.87;0.87;;;-6.20;99.90;;;;;;5069857;28;20284;-73
2022/01/06 02:35:28;;;;;;;1.00;1.00;;;-6.20;99.90;;;;;;5069666;28;20201;-73
2022/01/06 02:37:54;;;;;;;0.90;0.90;;;-6.20;99.90;;;;;;5070952;28;20248;-72
2022/01/06 02:40:23;;;;;;;0.90;0.90;;;-6.20;99.90;;;;;;5034870;28;20223;-74
2022/01/06 02:42:52;;;;;;;0.87;0.87;;;-6.30;99.90;;;;;;5031093;28;20201;-73
2022/01/06 02:45:20;;;;;;;0.97;0.97;;;-6.30;99.90;;;;;;5029805;28;20221;-73
2022/01/06 02:47:47;;;;;;;0.90;0.90;;;-6.40;99.90;;;;;;5031165;28;20210;-73
2022/01/06 02:50:14;;;;;;;0.93;0.93;;;-6.40;99.90;;;;;;5033305;28;20671;-73
2022/01/06 02:52:40;;;;;;;0.90;0.90;;;-6.30;99.90;;;;;;5032993;28;20620;-73
2022/01/06 02:55:08;;;;;;;0.93;0.93;;;-6.40;99.90;;;;;;5033330;28;20244;-73
2022/01/06 02:57:34;;;;;;;0.90;0.90;;;-6.30;99.90;;;;;;5031457;28;20214;-73
2022/01/06 03:00:00;;;;;;;0.90;0.90;;;-6.30;99.90;;;;;;5028575;28;20207;-72
2022/01/06 03:02:26;;;;;;;0.90;0.90;;;-6.10;99.90;;;;;;5024780;28;20267;-72
2022/01/06 03:04:52;;;;;;;0.90;0.90;;;-6.00;99.90;;;;;;5034043;28;20209;-72
2022/01/06 03:07:18;;;;;;;0.80;0.80;;;-6.00;99.90;;;;;;5034152;28;20583;-73
2022/01/06 03:09:51;;;;;;;0.80;0.80;;;-6.00;99.90;;;;;;5034343;28;20202;-72
2022/01/06 03:12:25;;;;;;;0.90;0.90;;;-6.00;99.90;;;;;;5034200;28;20687;-73
2022/01/06 03:14:50;;;;;;;1.20;1.20;;;-6.00;99.90;;;;;;5030152;28;20297;-72
2022/01/06 03:17:16;;;;;;;0.90;0.90;;;-6.00;99.90;;;;;;5033844;28;20337;-73
2022/01/06 03:19:42;;;;;;;0.87;0.87;;;-5.90;99.90;;;;;;5032602;28;20721;-73
2022/01/06 03:22:08;;;;;;;0.90;0.90;;;-6.00;99.90;;;;;;5031411;28;20281;-73
2022/01/06 03:24:34;;;;;;;0.90;0.90;;;-6.00;99.90;;;;;;5032410;28;20202;-73
2022/01/06 03:26:59;;;;;;;0.90;0.90;;;-6.00;99.90;;;;;;5032735;28;20264;-74
2022/01/06 03:29:25;;;;;;;0.90;0.90;;;-6.00;99.90;;;;;;5033572;28;20209;-73
2022/01/06 03:31:51;;;;;;;0.90;0.90;;;-6.10;99.90;;;;;;5032767;28;20273;-74
2022/01/06 03:34:17;;;;;;;0.90;0.90;;;-6.30;99.90;;;;;;5033707;28;20198;-73
2022/01/06 03:36:43;;;;;;;0.90;0.90;;;-6.30;99.90;;;;;;5032401;28;20312;-73
2022/01/06 03:39:08;;;;;;;0.80;0.80;;;-6.20;99.90;;;;;;5042702;28;20233;-74
2022/01/06 03:41:35;;;;;;;0.90;0.90;;;-6.20;99.90;;;;;;5072243;28;20220;-73
2022/01/06 03:44:01;;;;;;;0.80;0.80;;;-6.10;99.90;;;;;;5074159;28;20274;-73
2022/01/06 03:46:27;;;;;;;0.80;0.80;;;-6.00;99.90;;;;;;5068783;28;20213;-73
2022/01/06 03:48:53;;;;;;;0.90;0.90;;;-6.00;99.90;;;;;;5072541;28;20588;-72
2022/01/06 03:51:20;;;;;;;0.87;0.87;;;-6.00;99.90;;;;;;5068757;28;20205;-73
2022/01/06 03:53:47;;;;;;;0.90;0.90;;;-6.00;99.90;;;;;;5046235;28;20209;-72
2022/01/06 03:56:13;;;;;;;0.90;0.90;;;-5.90;99.90;;;;;;5070487;28;20577;-73
2022/01/06 03:58:40;;;;;;;1.00;1.00;;;-5.90;99.90;;;;;;5070342;28;20293;-72
2022/01/06 04:01:06;;;;;;;1.00;1.00;;;-5.80;99.90;;;;;;5068419;28;20192;-74
2022/01/06 04:03:32;;;;;;;0.83;0.83;;;-5.70;99.90;;;;;;5071411;28;20209;-73
2022/01/06 04:05:58;;;;;;;0.90;0.90;;;-5.80;99.90;;;;;;5072959;28;20721;-73
2022/01/06 04:08:24;;;;;;;0.90;0.90;;;-5.90;99.90;;;;;;5055701;28;20587;-73
2022/01/06 04:10:51;;;;;;;0.90;0.90;;;-5.90;99.90;;;;;;5055900;28;20343;-72
2022/01/06 04:13:16;;;;;;;0.90;0.90;;;-5.90;99.90;;;;;;5070616;28;20267;-72
2022/01/06 04:15:44;;;;;;;0.90;0.90;;;-5.90;99.90;;;;;;5072668;28;20694;-75
2022/01/06 04:18:10;;;;;;;0.90;0.90;;;-5.90;99.90;;;;;;5072806;28;20726;-75
2022/01/06 04:20:36;;;;;;;0.90;0.90;;;-5.90;99.90;;;;;;5055670;28;20192;-75
2022/01/06 04:23:02;;;;;;;0.90;0.90;;;-5.90;99.90;;;;;;5071581;28;20201;-75
2022/01/06 04:25:27;;;;;;;0.90;0.90;;;-5.70;99.90;;;;;;5072274;28;20201;-74
2022/01/06 04:27:53;;;;;;;0.73;0.73;;;-5.60;99.90;;;;;;5053530;28;20205;-74
2022/01/06 04:30:19;;;;;;;0.93;0.93;;;-5.60;99.90;;;;;;5053659;28;20282;-75
2022/01/06 04:32:44;;;;;;;0.90;0.90;;;-5.50;99.90;;;;;;5072542;28;20288;-75
2022/01/06 04:35:11;;;;;;;0.90;0.90;;;-5.40;99.90;;;;;;5054672;28;20220;-73
2022/01/06 04:37:37;;;;;;;0.90;0.90;;;-5.40;99.90;;;;;;5071406;28;20209;-73
2022/01/06 04:40:04;;;;;;;0.90;0.90;;;-5.50;99.90;;;;;;5071249;28;20634;-73
2022/01/06 04:42:30;;;;;;;0.80;0.80;;;-5.50;99.90;;;;;;5071903;28;20275;-73
2022/01/06 04:44:56;;;;;;;0.90;0.90;;;-5.40;99.90;;;;;;5055313;28;20665;-73
2022/01/06 04:47:22;;;;;;;0.80;0.80;;;-5.50;99.90;;;;;;5071856;28;20205;-73
2022/01/06 04:49:47;;;;;;;0.90;0.90;;;-5.50;99.90;;;;;;5072032;28;20201;-73
2022/01/06 04:52:13;;;;;;;0.90;0.90;;;-5.50;99.90;;;;;;5069027;28;20262;-73
2022/01/06 04:54:39;;;;;;;1.00;1.00;;;-5.70;99.90;;;;;;5071791;28;20557;-75
2022/01/06 04:57:05;;;;;;;0.80;0.80;;;-5.80;99.90;;;;;;5053141;28;20197;-74
2022/01/06 04:59:30;;;;;;;0.87;0.87;;;-5.90;99.90;;;;;;5070598;28;20209;-74
2022/01/06 05:01:56;;;;;;;0.90;0.90;;;-5.80;99.90;;;;;;5054726;28;20265;-75
2022/01/06 05:04:22;;;;;;;0.90;0.90;;;-5.90;99.90;;;;;;5070452;28;20243;-75
2022/01/06 05:06:50;;;;;;;0.90;0.90;;;-6.00;99.90;;;;;;5053825;28;20209;-75
2022/01/06 05:09:16;;;;;;;0.80;0.80;;;-5.90;99.90;;;;;;5053829;28;20200;-75
2022/01/06 05:11:42;;;;;;;0.90;0.90;;;-5.90;99.90;;;;;;5069966;28;20269;-75
2022/01/06 05:14:08;;;;;;;0.90;0.90;;;-5.90;99.90;;;;;;5071808;28;20309;-75
2022/01/06 05:16:33;;;;;;;0.80;0.80;;;-5.80;99.90;;;;;;5053765;28;20558;-75
2022/01/06 05:18:59;;;;;;;0.90;0.90;;;-5.70;99.90;;;;;;5071726;28;20236;-74
2022/01/06 05:21:29;;;;;;;0.90;0.90;;;-5.70;99.90;;;;;;5071462;28;20542;-74
2022/01/06 05:23:54;;;;;;;0.90;0.90;;;-5.60;99.90;;;;;;5054968;28;20205;-75
2022/01/06 05:26:20;;;;;;;0.90;0.90;;;-5.60;99.90;;;;;;5071685;28;20215;-75
2022/01/06 05:28:46;;;;;;;0.80;0.80;;;-5.60;99.90;;;;;;5071589;28;20287;-75
2022/01/06 05:31:11;;;;;;;1.00;1.00;;;-5.60;99.90;;;;;;5071578;28;20205;-75
2022/01/06 05:33:37;;;;;;;0.90;0.90;;;-5.60;99.90;;;;;;5070240;28;20200;-75
2022/01/06 05:36:03;;;;;;;0.90;0.90;;;-5.60;99.90;;;;;;5070391;28;20240;-75
2022/01/06 05:38:29;;;;;;;0.90;0.90;;;-5.70;99.90;;;;;;5070204;28;20209;-75
2022/01/06 05:40:54;;;;;;;0.80;0.80;;;-5.70;99.90;;;;;;5030854;28;20233;-73
2022/01/06 05:43:21;;;;;;;0.83;0.83;;;-5.70;99.90;;;;;;5028708;28;20213;-73
2022/01/06 05:45:50;;;;;;;0.90;0.90;;;-5.70;99.90;;;;;;5029195;28;20682;-75
2022/01/06 05:48:16;;;;;;;0.80;0.80;;;-5.80;99.90;;;;;;5029577;28;20732;-75
2022/01/06 05:50:42;;;;;;;1.00;1.00;;;-5.70;99.90;;;;;;5030100;28;20210;-75
2022/01/06 05:53:08;;;;;;;0.80;0.80;;;-5.70;99.90;;;;;;5030569;28;20198;-75
2022/01/06 05:55:33;;;;;;;0.90;0.90;;;-5.80;99.90;;;;;;5030070;28;20214;-74
2022/01/06 05:57:59;;;;;;;0.90;0.90;;;-6.00;99.90;;;;;;5025626;28;20315;-74
2022/01/06 06:00:25;;;;;;;0.90;0.90;;;-6.00;99.90;;;;;;5030157;28;20209;-75
2022/01/06 06:02:51;;;;;;;0.80;0.80;;;-6.20;99.90;;;;;;5028977;28;20202;-75
2022/01/06 06:05:16;;;;;;;0.80;0.80;;;-6.40;99.90;;;;;;5030242;28;20198;-74
2022/01/06 06:07:42;;;;;;;0.80;0.80;;;-6.50;99.90;;;;;;5030801;28;20217;-75
2022/01/06 06:10:08;;;;;;;0.80;0.80;;;-6.60;99.90;;;;;;5029527;28;20268;-75
2022/01/06 06:12:34;;;;;;;0.90;0.90;;;-6.60;99.90;;;;;;5029796;28;20277;-75
2022/01/06 06:14:59;;;;;;;0.80;0.80;;;-6.60;99.90;;;;;;5030751;28;20234;-75
2022/01/06 06:17:25;;;;;;;0.90;0.90;;;-6.50;99.90;;;;;;5029517;28;20206;-75
2022/01/06 06:19:51;;;;;;;0.90;0.90;;;-6.60;99.90;;;;;;5030314;28;20213;-75
2022/01/06 06:22:16;;;;;;;0.90;0.90;;;-6.50;99.90;;;;;;5029212;28;20619;-74
2022/01/06 06:24:45;;;;;;;0.90;0.90;;;-6.50;99.90;;;;;;5033812;28;20206;-75
2022/01/06 06:27:10;;;;;;;0.90;0.90;;;-6.50;99.90;;;;;;5034932;28;20732;-75
2022/01/06 06:29:37;;;;;;;1.00;1.00;;;-6.50;99.90;;;;;;5033422;28;20210;-75
2022/01/06 06:32:04;;;;;;;0.90;0.90;;;-6.40;99.90;;;;;;5033785;28;20686;-74
2022/01/06 06:34:29;;;;;;;0.90;0.90;;;-6.40;99.90;;;;;;5032272;28;20210;-75
2022/01/06 06:36:55;;;;;;;0.90;0.90;;;-6.40;99.90;;;;;;5033468;28;20198;-74
2022/01/06 06:39:21;;;;;;;0.90;0.90;;;-6.50;99.90;;;;;;5032848;28;20230;-74
2022/01/06 06:41:46;;;;;;;0.90;0.90;;;-6.60;99.90;;;;;;5034700;28;20198;-75
2022/01/06 06:44:12;;;;;;;0.90;0.90;;;-6.70;99.90;;;;;;5032991;28;20206;-75
2022/01/06 06:46:38;;;;;;;0.97;0.97;;;-6.70;99.90;;;;;;5034370;28;20686;-75
2022/01/06 06:49:04;;;;;;;0.90;0.90;;;-6.80;99.90;;;;;;5032019;28;20245;-75
2022/01/06 06:51:30;;;;;;;0.90;0.90;;;-6.90;99.90;;;;;;5032895;28;20206;-76
2022/01/06 06:53:55;;;;;;;0.87;0.87;;;-7.00;99.90;;;;;;5034344;28;20712;-75
2022/01/06 06:56:21;;;;;;;0.90;0.90;;;-7.00;99.90;;;;;;5032958;28;20289;-75
2022/01/06 06:58:47;;;;;;;0.80;0.80;;;-7.10;99.90;;;;;;5034361;28;20241;-74
2022/01/06 07:01:14;;;;;;;0.80;0.80;;;-7.20;99.90;;;;;;5034267;28;20658;-75
2022/01/06 07:03:40;;;;;;;0.90;0.90;;;-7.30;99.90;;;;;;5033259;28;20205;-74
2022/01/06 07:06:05;;;;;;;0.80;0.80;;;-7.40;99.90;;;;;;5032196;28;20210;-74
2022/01/06 07:08:31;;;;;;;0.90;0.90;;;-7.30;99.90;;;;;;5033846;28;20206;-74
2022/01/06 07:10:57;;;;;;;0.90;0.90;;;-7.30;99.90;;;;;;5034146;28;20211;-75
2022/01/06 07:13:22;;;;;;;0.80;0.80;;;-7.20;99.90;;;;;;5032788;28;20260;-75
2022/01/06 07:15:48;;;;;;;0.90;0.90;;;-7.20;99.90;;;;;;5033104;28;20230;-74
2022/01/06 07:18:14;;;;;;;1.33;1.23;;;-7.20;99.90;;;;;;5030342;28;20218;-74
2022/01/06 07:20:41;;;;;;;0.90;0.90;;;-7.20;99.90;;;;;;5022053;28;21236;-74
2022/01/06 07:23:06;;;;;;;1.97;1.87;;;-7.20;99.90;;;;;;5028609;28;20293;-74
2022/01/06 07:25:32;;;;;;;2.73;1.73;;;-7.30;99.90;;;;;;5028724;28;20289;-75
2022/01/06 07:27:58;;;;;;;1.00;1.00;;;-7.30;99.90;;;;;;5026046;28;20285;-76
2022/01/06 07:30:24;;;;;;;0.90;0.90;;;-7.40;99.90;;;;;;5033495;28;20210;-75
2022/01/06 07:32:51;;;;;;;0.87;0.87;;;-7.50;99.90;;;;;;5032409;28;20214;-74
2022/01/06 07:35:21;;;;;;;5.43;3.47;;;-7.40;99.90;;;;;;5031181;28;20303;-74
2022/01/06 07:37:47;;;;;;;0.90;0.90;;;-7.20;99.90;;;;;;5032535;28;20240;-74
2022/01/06 07:40:14;;;;;;;0.90;0.90;;;-7.30;99.90;;;;;;5030971;28;20317;-74
2022/01/06 07:42:40;;;;;;;1.87;1.77;;;-7.30;99.90;;;;;;5032263;28;20676;-74
2022/01/06 07:45:06;;;;;;;0.83;0.83;;;-7.20;99.90;;;;;;5033547;28;20279;-76
2022/01/06 07:47:35;;;;;;;0.90;0.90;;;-7.20;99.90;;;;;;5033253;28;20205;-75
2022/01/06 07:50:01;;;;;;;0.90;0.90;;;-7.20;99.90;;;;;;5030042;28;20209;-75
2022/01/06 07:52:26;;;;;;;0.90;0.90;;;-7.20;99.90;;;;;;5016926;28;20191;-75
2022/01/06 07:54:52;;;;;;;0.80;0.80;;;-7.20;99.90;;;;;;5033314;28;20569;-74
2022/01/06 07:57:18;;;;;;;1.00;1.00;;;-7.20;99.90;;;;;;5028095;28;20568;-75
2022/01/06 07:59:44;;;;;;;1.00;1.00;;;-7.10;99.90;;;;;;5014491;28;20202;-75
2022/01/06 08:02:09;;;;;;;0.80;0.80;;;-7.00;99.90;;;;;;5032081;28;20201;-74
2022/01/06 08:04:36;;;;;;;0.80;0.80;;;-7.00;99.90;;;;;;5014498;28;20210;-74
2022/01/06 08:07:02;;;;;;;0.87;0.87;;;-6.80;99.90;;;;;;5031062;28;20202;-74
2022/01/06 08:09:28;;;;;;;0.90;0.90;;;-6.60;99.90;;;;;;5032163;28;20218;-73
2022/01/06 08:11:54;;;;;;;0.80;0.80;;;-6.50;99.90;;;;;;5029674;28;20220;-74
2022/01/06 08:14:20;;;;;;;0.80;0.80;;;-6.50;99.90;;;;;;5031563;28;20210;-74
2022/01/06 08:16:45;;;;;;;0.90;0.90;;;-6.60;99.90;;;;;;5032215;28;20210;-73
2022/01/06 08:19:11;;;;;;;0.90;0.90;;;-6.60;99.90;;;;;;5031676;28;20224;-72
2022/01/06 08:21:37;;;;;;;0.90;0.90;;;-6.60;99.90;;;;;;5032536;28;20570;-74
2022/01/06 08:24:03;;;;;;;0.90;0.90;;;-6.50;99.90;;;;;;5030334;28;20345;-75
2022/01/06 08:26:30;;;;;;;0.90;0.90;;;-6.20;99.90;;;;;;5032500;28;20202;-74
2022/01/06 08:28:55;;;;;;;0.90;0.90;;;-6.10;99.90;;;;;;5030219;28;20665;-75
2022/01/06 08:31:21;;;;;;;0.90;0.90;;;-6.00;99.90;;;;;;5032326;28;20224;-75
2022/01/06 08:33:47;;;;;;;0.90;0.90;;;-5.90;99.90;;;;;;5031219;28;20214;-75
2022/01/06 08:36:13;;;;;;;0.90;0.90;;;-5.90;99.90;;;;;;5030042;28;20206;-74
2022/01/06 08:38:38;;;;;;;0.90;0.90;;;-5.90;99.90;;;;;;5028218;28;20658;-75
2022/01/06 08:41:04;;;;;;;0.80;0.80;;;-5.90;99.90;;;;;;5060225;28;20197;-75
2022/01/06 08:43:33;;;;;;;0.90;0.90;;;-5.80;99.90;;;;;;5055193;28;20193;-75
2022/01/06 08:45:58;;;;;;;1.50;1.40;;;-5.80;99.90;;;;;;5053499;28;20204;-75
2022/01/06 08:48:25;;;;;;;0.77;0.77;;;-5.70;99.90;;;;;;5052894;28;20204;-76
2022/01/06 08:50:51;;;;;;;0.90;0.90;;;-5.70;99.90;;;;;;5071054;28;20683;-75
2022/01/06 08:53:17;;;;;;;0.80;0.80;;;-5.70;99.90;;;;;;5071029;28;20206;-75
2022/01/06 08:55:46;;;;;;;0.90;0.90;;;-5.70;99.90;;;;;;5071830;28;20719;-76
2022/01/06 08:58:13;;;;;;;0.80;0.80;;;-5.70;99.90;;;;;;5059022;28;20212;-73
2022/01/06 09:00:39;;;;;;;0.80;0.80;;;-5.70;99.90;;;;;;5070828;28;20196;-75
2022/01/06 09:03:06;;;;;;;0.80;0.80;;;-5.60;99.90;;;;;;5072277;28;20196;-75
2022/01/06 09:05:35;;;;;;;1.00;1.00;;;-5.60;99.90;;;;;;5054048;28;20207;-74
2022/01/06 09:08:01;;;;;;;0.90;0.90;;;-5.50;99.90;;;;;;5072275;28;20208;-74
2022/01/06 09:10:33;;;;;;;0.80;0.80;;;-5.60;99.90;;;;;;5085758;28;20552;-74
2022/01/06 09:13:05;;;;;;;0.80;0.80;;;-5.50;99.90;;;;;;5071778;28;20694;-74
2022/01/06 09:15:34;;;;;;;0.80;0.80;;;-5.60;99.90;;;;;;5070372;28;20212;-74
2022/01/06 09:18:02;;;;;;;0.80;0.80;;;-5.60;99.90;;;;;;5070547;28;20213;-74
2022/01/06 09:20:32;;;;;;;0.90;0.90;;;-5.70;99.90;;;;;;5054651;28;20714;-75
2022/01/06 09:22:57;;;;;;;1.20;1.20;;;-5.70;99.90;;;;;;5053493;28;20204;-74
2022/01/06 09:25:23;;;;;;;1.40;1.30;;;-5.70;99.90;;;;;;5071574;28;20209;-74
2022/01/06 09:27:49;;;;;;;0.90;0.90;;;-5.90;99.90;;;;;;5071597;28;20585;-74
2022/01/06 09:30:23;;;;;;;0.83;0.83;;;-6.00;99.90;;;;;;5070445;28;20613;-74
2022/01/06 09:32:49;;;;;;;0.80;0.80;;;-6.10;99.90;;;;;;5071564;28;20291;-75
2022/01/06 09:35:15;;;;;;;0.90;0.90;;;-6.10;99.90;;;;;;5053513;28;20201;-72
2022/01/06 09:37:41;;;;;;;0.70;0.70;;;-6.00;99.90;;;;;;5070488;28;20291;-74
2022/01/06 09:40:10;;;;;;;0.90;0.90;;;-5.90;99.90;;;;;;5070284;28;20223;-74
2022/01/06 09:42:36;;;;;;;0.90;0.90;;;-5.80;99.90;;;;;;5059767;28;20727;-74
2022/01/06 09:45:10;;;;;;;0.80;0.80;;;-5.90;99.90;;;;;;5070238;28;20283;-74
2022/01/06 09:47:41;;;;;;;0.70;0.70;;;-5.90;99.90;;;;;;5043230;28;20208;-75
2022/01/06 09:50:09;;;;;;;0.80;0.80;;;-6.00;99.90;;;;;;5070357;28;20675;-73
2022/01/06 09:52:38;;;;;;;0.77;0.77;;;-6.10;99.90;;;;;;5069969;28;20675;-75
2022/01/06 09:55:05;;;;;;;0.90;0.90;;;-6.20;99.90;;;;;;5071347;28;20270;-74
2022/01/06 09:57:31;;;;;;;0.90;0.90;;;-6.20;99.90;;;;;;5070040;28;20197;-75
2022/01/06 09:59:57;;;;;;;0.90;0.90;;;-6.20;99.90;;;;;;5057614;28;20255;-75
2022/01/06 10:02:40;;;;;;;1.10;1.10;;;-6.20;99.90;;;;;;5073965;28;20609;-73
2022/01/06 10:05:07;;;;;;;0.90;0.90;;;-6.10;99.90;;;;;;5059069;28;20212;-75
2022/01/06 10:07:37;;;;;;;1.00;1.00;;;-6.00;99.90;;;;;;5057304;28;20241;-76
2022/01/06 10:10:08;;;;;;;0.90;0.90;;;-6.00;99.90;;;;;;5058529;28;20562;-77
2022/01/06 10:12:35;;;;;;;0.90;0.90;;;-6.00;99.90;;;;;;5057728;28;20684;-76
2022/01/06 10:15:01;;;;;;;0.90;0.90;;;-6.00;99.90;;;;;;5075354;28;20279;-76
2022/01/06 10:17:33;;;;;;;0.90;0.90;;;-6.00;99.90;;;;;;5074955;28;20661;-75
2022/01/06 10:20:12;;;;;;;1.00;1.00;;;-5.80;99.90;;;;;;5057528;28;20664;-76
2022/01/06 10:22:52;;;;;;;0.97;0.97;;;-5.70;99.90;;;;;;5074807;28;20292;-75
2022/01/06 10:25:21;;;;;;;0.90;0.90;;;-5.50;99.90;;;;;;5056002;28;20254;-75
2022/01/06 10:27:49;;;;;;;0.87;0.87;;;-5.40;99.90;;;;;;5074105;28;20279;-76
2022/01/06 10:30:15;;;;;;;0.90;0.90;;;-5.40;99.90;;;;;;5056343;28;20201;-75
2022/01/06 10:32:42;;;;;;;1.75;1.65;;;-5.50;99.90;;;;;;5072840;28;20262;-75
2022/01/06 10:35:09;;;;;;;1.10;1.10;;;-5.40;99.90;;;;;;5074078;28;20262;-76
2022/01/06 10:37:40;;;;;;;0.90;0.90;;;-5.30;99.90;;;;;;5073330;28;20205;-76
2022/01/06 10:40:18;;;;;;;0.82;0.82;;;-5.20;99.90;;;;;;5055555;28;20586;-76
2022/01/06 10:42:47;;;;;;;0.80;0.80;;;-5.00;99.90;;;;;;5057637;28;20231;-76
2022/01/06 10:45:18;;;;;;;0.97;0.97;;;-5.00;99.90;;;;;;5073390;28;20297;-76
2022/01/06 10:47:49;;;;;;;0.98;0.98;;;-5.00;99.90;;;;;;5074457;28;20204;-76
2022/01/06 10:50:21;;;;;;;0.90;0.90;;;-5.10;99.90;;;;;;5073287;28;20207;-77
2022/01/06 10:52:51;;;;;;;0.90;0.90;;;-5.10;99.90;;;;;;5074515;28;20271;-76
2022/01/06 10:55:20;;;;;;;0.90;0.90;;;-5.20;99.90;;;;;;5066952;22;20622;-80
2022/01/06 10:58:08;;;;;;;1.83;1.47;;;-5.20;99.90;;;;;;5072183;28;20213;-78
2022/01/06 11:00:34;;;;;;;0.90;0.90;;;-5.10;99.90;;;;;;5057495;28;20681;-80
2022/01/06 11:03:14;;;;;;;1.38;1.17;;;-5.10;99.90;;;;;;5068404;28;20259;-78
2022/01/06 11:05:46;;;;;;;1.23;1.20;;;-5.00;99.90;;;;;;5072832;28;20569;-80
2022/01/06 11:08:13;;;;;;;0.90;0.90;;;-5.00;99.90;;;;;;5072176;28;20224;-80
2022/01/06 11:10:47;;;;;;;0.80;0.80;;;-5.20;99.90;;;;;;5072846;28;20751;-79
2022/01/06 11:13:14;;;;;;;0.80;0.80;;;-5.30;99.90;;;;;;5058256;28;20206;-79
2022/01/06 11:15:41;;;;;;;0.70;0.70;;;-5.40;99.90;;;;;;5068833;28;20234;-79
2022/01/06 11:18:07;;;;;;;1.80;1.53;;;-5.50;99.90;;;;;;5070464;28;20216;-80
2022/01/06 11:20:37;;;;;;;0.90;0.90;;;-5.60;99.90;;;;;;5073416;28;20208;-80
2022/01/06 11:23:02;;;;;;;1.10;1.10;;;-5.60;99.90;;;;;;5063012;28;20677;-81
2022/01/06 11:25:36;;;;;;;0.90;0.90;;;-5.70;99.90;;;;;;5057368;28;20208;-80
2022/01/06 11:28:10;;;;;;;0.90;0.90;;;-5.70;99.90;;;;;;5063601;28;20250;-80
2022/01/06 11:30:48;;;;;;;0.90;0.90;;;-5.70;99.90;;;;;;5064028;28;20205;-80
2022/01/06 11:33:15;;;;;;;1.63;1.30;;;-5.70;99.90;;;;;;5071275;28;20212;-81
2022/01/06 11:35:55;;;;;;;0.80;0.80;;;-5.70;99.90;;;;;;5064118;28;20305;-81
2022/01/06 11:38:25;;;;;;;1.90;1.33;;;-5.70;99.90;;;;;;5055894;28;20216;-84
2022/01/06 11:41:06;;;;;;;0.90;0.90;;;-5.80;99.90;;;;;;5065742;28;20676;-82
2022/01/06 11:43:40;;;;;;;0.80;0.80;;;-5.80;99.90;;;;;;5064535;28;20202;-82
2022/01/06 11:46:06;;;;;;;0.80;0.80;;;-5.80;99.90;;;;;;5066148;28;20192;-83
2022/01/06 11:48:35;;;;;;;0.80;0.80;;;-5.90;99.90;;;;;;5062711;28;20703;-83
2022/01/06 11:51:00;;;;;;;0.80;0.80;;;-5.80;99.90;;;;;;5065769;28;20305;-81
2022/01/06 11:53:31;;;;;;;0.85;0.85;;;-5.60;99.90;;;;;;5067018;28;20240;-82
2022/01/06 11:55:58;;;;;;;0.90;0.90;;;-5.60;99.90;;;;;;5062732;28;20227;-81
2022/01/06 11:58:25;;;;;;;0.83;0.83;;;-5.60;99.90;;;;;;5071735;28;20213;-82
2022/01/06 12:00:58;;;;;;;1.00;1.00;;;-5.60;99.90;;;;;;5072349;28;20197;-81
2022/01/06 12:03:37;;;;;;;0.83;0.83;;;-5.50;99.90;;;;;;5071435;28;20208;-82
2022/01/06 12:06:03;;;;;;;0.80;0.80;;;-5.60;99.90;;;;;;5070812;28;20243;-80
2022/01/06 12:08:40;;;;;;;0.90;0.90;;;-5.30;99.90;;;;;;5070454;28;20570;-80
2022/01/06 12:11:29;;;;;;;0.90;0.90;;;-5.30;99.90;;;;;;5064377;28;20684;-79
2022/01/06 12:13:56;;;;;;;0.90;0.90;;;-5.20;99.90;;;;;;5043270;28;20216;-80
2022/01/06 12:16:43;;;;;;;0.90;0.90;;;-5.10;99.90;;;;;;5064548;28;20660;-85
2022/01/06 12:19:17;;;;;;;0.80;0.80;;;-5.10;99.90;;;;;;5072944;28;20204;-79
2022/01/06 12:21:43;;;;;;;0.93;0.93;;;-5.20;99.90;;;;;;5061871;28;20259;-80
2022/01/06 12:24:11;;;;;;;0.80;0.80;;;-5.30;99.90;;;;;;5055708;28;20202;-79
2022/01/06 12:26:37;;;;;;;0.90;0.90;;;-5.40;99.90;;;;;;5055679;28;20221;-79
2022/01/06 12:29:07;;;;;;;0.90;0.90;;;-5.40;99.90;;;;;;5062383;28;20208;-80
2022/01/06 12:31:33;;;;;;;0.80;0.80;;;-5.30;99.90;;;;;;5069993;28;20209;-79
2022/01/06 12:34:01;;;;;;;0.80;0.80;;;-5.20;99.90;;;;;;5071313;28;20287;-80
2022/01/06 12:36:30;;;;;;;0.90;0.90;;;-5.20;99.90;;;;;;5071251;28;20193;-82
2022/01/06 12:38:56;;;;;;;0.77;0.77;;;-5.10;99.90;;;;;;5067594;28;20201;-80
2022/01/06 12:41:32;;;;;;;0.70;0.70;;;-5.20;99.90;;;;;;5053339;28;20264;-80
2022/01/06 12:43:58;;;;;;;0.80;0.80;;;-5.30;99.90;;;;;;5058005;28;20188;-79
2022/01/06 12:46:30;;;;;;;0.90;0.90;;;-5.20;99.90;;;;;;5068721;28;20197;-79
2022/01/06 12:48:56;;;;;;;0.90;0.90;;;-4.90;99.90;;;;;;5054623;28;20671;-79
2022/01/06 12:51:30;;;;;;;1.00;1.00;;;-4.80;99.90;;;;;;5055232;28;20262;-80
2022/01/06 12:54:18;;;;;;;0.87;0.87;;;-4.80;99.90;;;;;;5067798;28;20208;-79
2022/01/06 12:56:49;;;;;;;0.90;0.90;;;-4.50;99.90;;;;;;5055540;28;20315;-80
2022/01/06 12:59:33;;;;;;;0.90;0.90;;;-4.40;99.90;;;;;;5069520;28;20590;-80